sensor_id;sensor_type;location;lat;lon;timestamp;P1;durP1;ratioP1;P2;durP2;ratioP2
13793;SDS011;31160;49.500;7.772;2023-11-19T00:00:08;0.87;;;0.20;;
13793;SDS011;31160;49.500;7.772;2023-11-19T00:02:39;1.30;;;0.27;;
13793;SDS011;31160;49.500;7.772;2023-11-19T00:05:07;0.40;;;0.30;;
13793;SDS011;31160;49.500;7.772;2023-11-19T00:07:35;0.27;;;0.17;;
13793;SDS011;31160;49.500;7.772;2023-11-19T00:10:03;0.57;;;0.30;;
13793;SDS011;31160;49.500;7.772;2023-11-19T00:12:33;0.30;;;0.10;;
13793;SDS011;31160;49.500;7.772;2023-11-19T00:15:00;0.30;;;0.20;;
13793;SDS011;31160;49.500;7.772;2023-11-19T00:17:27;0.37;;;0.13;;
13793;SDS011;31160;49.500;7.772;2023-11-19T00:19:54;0.60;;;0.30;;
13793;SDS011;31160;49.500;7.772;2023-11-19T00:22:22;0.30;;;0.20;;
13793;SDS011;31160;49.500;7.772;2023-11-19T00:24:49;0.57;;;0.20;;
13793;SDS011;31160;49.500;7.772;2023-11-19T00:27:17;0.50;;;0.30;;
13793;SDS011;31160;49.500;7.772;2023-11-19T00:29:44;2.20;;;0.30;;
13793;SDS011;31160;49.500;7.772;2023-11-19T00:32:13;1.40;;;0.20;;
13793;SDS011;31160;49.500;7.772;2023-11-19T00:34:45;1.97;;;0.20;;
13793;SDS011;31160;49.500;7.772;2023-11-19T00:37:14;1.03;;;0.50;;
13793;SDS011;31160;49.500;7.772;2023-11-19T00:39:43;0.87;;;0.30;;
13793;SDS011;31160;49.500;7.772;2023-11-19T00:42:10;0.50;;;0.20;;
13793;SDS011;31160;49.500;7.772;2023-11-19T00:44:37;0.70;;;0.30;;
13793;SDS011;31160;49.500;7.772;2023-11-19T00:47:04;0.40;;;0.20;;
13793;SDS011;31160;49.500;7.772;2023-11-19T00:49:31;0.50;;;0.27;;
13793;SDS011;31160;49.500;7.772;2023-11-19T00:52:01;0.67;;;0.20;;
13793;SDS011;31160;49.500;7.772;2023-11-19T00:54:28;0.63;;;0.30;;
13793;SDS011;31160;49.500;7.772;2023-11-19T00:56:55;0.80;;;0.30;;
13793;SDS011;31160;49.500;7.772;2023-11-19T00:59:23;0.60;;;0.40;;
13793;SDS011;31160;49.500;7.772;2023-11-19T01:01:50;0.67;;;0.20;;
13793;SDS011;31160;49.500;7.772;2023-11-19T01:04:19;0.40;;;0.27;;
13793;SDS011;31160;49.500;7.772;2023-11-19T01:06:46;2.20;;;0.40;;
13793;SDS011;31160;49.500;7.772;2023-11-19T01:09:15;0.20;;;0.10;;
13793;SDS011;31160;49.500;7.772;2023-11-19T01:11:41;0.27;;;0.10;;
13793;SDS011;31160;49.500;7.772;2023-11-19T01:14:08;0.40;;;0.30;;
13793;SDS011;31160;49.500;7.772;2023-11-19T01:16:35;0.40;;;0.23;;
13793;SDS011;31160;49.500;7.772;2023-11-19T01:19:02;0.57;;;0.30;;
13793;SDS011;31160;49.500;7.772;2023-11-19T01:21:43;0.40;;;0.30;;
13793;SDS011;31160;49.500;7.772;2023-11-19T01:24:10;2.73;;;0.20;;
13793;SDS011;31160;49.500;7.772;2023-11-19T01:26:39;1.07;;;0.30;;
13793;SDS011;31160;49.500;7.772;2023-11-19T01:29:12;1.17;;;0.20;;
13793;SDS011;31160;49.500;7.772;2023-11-19T01:31:42;0.40;;;0.20;;
13793;SDS011;31160;49.500;7.772;2023-11-19T01:34:11;0.23;;;0.10;;
13793;SDS011;31160;49.500;7.772;2023-11-19T01:36:38;1.23;;;0.20;;
13793;SDS011;31160;49.500;7.772;2023-11-19T01:39:05;2.50;;;0.30;;
13793;SDS011;31160;49.500;7.772;2023-11-19T01:41:35;1.80;;;0.30;;
13793;SDS011;31160;49.500;7.772;2023-11-19T01:44:03;0.40;;;0.30;;
13793;SDS011;31160;49.500;7.772;2023-11-19T01:46:31;0.30;;;0.20;;
13793;SDS011;31160;49.500;7.772;2023-11-19T01:48:59;0.60;;;0.30;;
13793;SDS011;31160;49.500;7.772;2023-11-19T01:51:27;0.77;;;0.53;;
13793;SDS011;31160;49.500;7.772;2023-11-19T01:53:54;1.00;;;0.80;;
13793;SDS011;31160;49.500;7.772;2023-11-19T01:56:23;1.57;;;0.60;;
13793;SDS011;31160;49.500;7.772;2023-11-19T01:58:52;0.60;;;0.30;;
13793;SDS011;31160;49.500;7.772;2023-11-19T02:01:22;0.73;;;0.40;;
13793;SDS011;31160;49.500;7.772;2023-11-19T02:03:49;2.10;;;0.30;;
13793;SDS011;31160;49.500;7.772;2023-11-19T02:06:17;0.50;;;0.20;;
13793;SDS011;31160;49.500;7.772;2023-11-19T02:08:44;0.20;;;0.13;;
13793;SDS011;31160;49.500;7.772;2023-11-19T02:11:10;0.63;;;0.30;;
13793;SDS011;31160;49.500;7.772;2023-11-19T02:13:38;0.40;;;0.30;;
13793;SDS011;31160;49.500;7.772;2023-11-19T02:16:05;0.33;;;0.20;;
13793;SDS011;31160;49.500;7.772;2023-11-19T02:18:33;0.50;;;0.20;;
13793;SDS011;31160;49.500;7.772;2023-11-19T02:21:00;0.97;;;0.30;;
13793;SDS011;31160;49.500;7.772;2023-11-19T02:23:27;0.20;;;0.20;;
13793;SDS011;31160;49.500;7.772;2023-11-19T02:28:42;0.30;;;0.20;;
13793;SDS011;31160;49.500;7.772;2023-11-19T02:31:10;0.30;;;0.13;;
13793;SDS011;31160;49.500;7.772;2023-11-19T02:33:38;0.50;;;0.23;;
13793;SDS011;31160;49.500;7.772;2023-11-19T02:36:05;0.97;;;0.30;;
13793;SDS011;31160;49.500;7.772;2023-11-19T02:38:33;0.50;;;0.20;;
13793;SDS011;31160;49.500;7.772;2023-11-19T02:41:05;0.37;;;0.30;;
13793;SDS011;31160;49.500;7.772;2023-11-19T02:43:33;2.13;;;0.30;;
13793;SDS011;31160;49.500;7.772;2023-11-19T02:46:03;0.30;;;0.20;;
13793;SDS011;31160;49.500;7.772;2023-11-19T02:48:36;0.30;;;0.30;;
13793;SDS011;31160;49.500;7.772;2023-11-19T02:51:05;0.40;;;0.30;;
13793;SDS011;31160;49.500;7.772;2023-11-19T02:53:35;0.70;;;0.30;;
13793;SDS011;31160;49.500;7.772;2023-11-19T02:56:03;1.17;;;0.47;;
13793;SDS011;31160;49.500;7.772;2023-11-19T02:58:46;0.27;;;0.20;;
13793;SDS011;31160;49.500;7.772;2023-11-19T03:01:13;0.30;;;0.30;;
13793;SDS011;31160;49.500;7.772;2023-11-19T03:03:50;0.87;;;0.30;;
13793;SDS011;31160;49.500;7.772;2023-11-19T03:06:24;2.33;;;0.27;;
13793;SDS011;31160;49.500;7.772;2023-11-19T03:08:51;0.60;;;0.30;;
13793;SDS011;31160;49.500;7.772;2023-11-19T03:11:18;0.40;;;0.27;;
13793;SDS011;31160;49.500;7.772;2023-11-19T03:13:44;0.30;;;0.20;;
13793;SDS011;31160;49.500;7.772;2023-11-19T03:16:13;0.50;;;0.20;;
13793;SDS011;31160;49.500;7.772;2023-11-19T03:18:40;0.60;;;0.23;;
13793;SDS011;31160;49.500;7.772;2023-11-19T03:21:06;0.37;;;0.30;;
13793;SDS011;31160;49.500;7.772;2023-11-19T03:23:36;0.37;;;0.20;;
13793;SDS011;31160;49.500;7.772;2023-11-19T03:26:03;0.20;;;0.13;;
13793;SDS011;31160;49.500;7.772;2023-11-19T03:28:32;0.30;;;0.20;;
13793;SDS011;31160;49.500;7.772;2023-11-19T03:30:59;1.37;;;0.20;;
13793;SDS011;31160;49.500;7.772;2023-11-19T03:33:26;0.30;;;0.20;;
13793;SDS011;31160;49.500;7.772;2023-11-19T03:35:54;0.47;;;0.20;;
13793;SDS011;31160;49.500;7.772;2023-11-19T03:38:23;0.83;;;0.70;;
13793;SDS011;31160;49.500;7.772;2023-11-19T03:40:51;0.43;;;0.20;;
13793;SDS011;31160;49.500;7.772;2023-11-19T03:43:18;1.33;;;0.40;;
13793;SDS011;31160;49.500;7.772;2023-11-19T03:45:47;1.43;;;0.43;;
13793;SDS011;31160;49.500;7.772;2023-11-19T03:48:14;1.07;;;0.50;;
13793;SDS011;31160;49.500;7.772;2023-11-19T03:50:42;0.50;;;0.47;;
13793;SDS011;31160;49.500;7.772;2023-11-19T03:53:09;0.60;;;0.50;;
13793;SDS011;31160;49.500;7.772;2023-11-19T03:55:37;3.10;;;0.53;;
13793;SDS011;31160;49.500;7.772;2023-11-19T03:58:04;1.80;;;0.70;;
13793;SDS011;31160;49.500;7.772;2023-11-19T04:00:31;1.47;;;0.60;;
13793;SDS011;31160;49.500;7.772;2023-11-19T04:02:58;0.70;;;0.53;;
13793;SDS011;31160;49.500;7.772;2023-11-19T04:05:25;0.87;;;0.73;;
13793;SDS011;31160;49.500;7.772;2023-11-19T04:07:52;1.00;;;0.83;;
13793;SDS011;31160;49.500;7.772;2023-11-19T04:10:19;1.17;;;1.00;;
13793;SDS011;31160;49.500;7.772;2023-11-19T04:12:46;1.13;;;0.90;;
13793;SDS011;31160;49.500;7.772;2023-11-19T04:15:14;1.17;;;1.00;;
13793;SDS011;31160;49.500;7.772;2023-11-19T04:17:40;1.20;;;1.03;;
13793;SDS011;31160;49.500;7.772;2023-11-19T04:20:07;1.80;;;1.50;;
13793;SDS011;31160;49.500;7.772;2023-11-19T04:22:39;1.30;;;1.20;;
13793;SDS011;31160;49.500;7.772;2023-11-19T04:25:07;1.70;;;1.47;;
13793;SDS011;31160;49.500;7.772;2023-11-19T04:27:35;2.00;;;1.53;;
13793;SDS011;31160;49.500;7.772;2023-11-19T04:30:01;2.03;;;1.80;;
13793;SDS011;31160;49.500;7.772;2023-11-19T04:32:29;1.70;;;1.57;;
13793;SDS011;31160;49.500;7.772;2023-11-19T04:34:56;1.93;;;1.80;;
13793;SDS011;31160;49.500;7.772;2023-11-19T04:37:23;2.13;;;1.80;;
13793;SDS011;31160;49.500;7.772;2023-11-19T04:39:50;2.37;;;1.90;;
13793;SDS011;31160;49.500;7.772;2023-11-19T04:42:17;2.23;;;1.90;;
13793;SDS011;31160;49.500;7.772;2023-11-19T04:44:44;1.90;;;1.70;;
13793;SDS011;31160;49.500;7.772;2023-11-19T04:47:11;2.47;;;1.73;;
13793;SDS011;31160;49.500;7.772;2023-11-19T04:49:41;2.00;;;1.80;;
13793;SDS011;31160;49.500;7.772;2023-11-19T04:52:10;1.97;;;1.77;;
13793;SDS011;31160;49.500;7.772;2023-11-19T04:54:42;2.13;;;1.93;;
13793;SDS011;31160;49.500;7.772;2023-11-19T04:57:09;2.53;;;1.60;;
13793;SDS011;31160;49.500;7.772;2023-11-19T04:59:39;2.67;;;1.60;;
13793;SDS011;31160;49.500;7.772;2023-11-19T05:02:08;2.43;;;1.70;;
13793;SDS011;31160;49.500;7.772;2023-11-19T05:04:35;1.33;;;1.23;;
13793;SDS011;31160;49.500;7.772;2023-11-19T05:07:03;2.27;;;1.60;;
13793;SDS011;31160;49.500;7.772;2023-11-19T05:09:30;1.70;;;1.50;;
13793;SDS011;31160;49.500;7.772;2023-11-19T05:11:57;1.97;;;1.60;;
13793;SDS011;31160;49.500;7.772;2023-11-19T05:14:24;1.70;;;1.27;;
13793;SDS011;31160;49.500;7.772;2023-11-19T05:16:51;1.57;;;1.23;;
13793;SDS011;31160;49.500;7.772;2023-11-19T05:19:18;1.90;;;1.27;;
13793;SDS011;31160;49.500;7.772;2023-11-19T05:21:44;1.93;;;1.20;;
13793;SDS011;31160;49.500;7.772;2023-11-19T05:24:11;1.30;;;1.17;;
13793;SDS011;31160;49.500;7.772;2023-11-19T05:26:38;2.43;;;1.17;;
13793;SDS011;31160;49.500;7.772;2023-11-19T05:29:05;2.10;;;1.30;;
13793;SDS011;31160;49.500;7.772;2023-11-19T05:31:32;3.07;;;1.13;;
13793;SDS011;31160;49.500;7.772;2023-11-19T05:34:02;2.67;;;1.40;;
13793;SDS011;31160;49.500;7.772;2023-11-19T05:36:29;2.43;;;1.13;;
13793;SDS011;31160;49.500;7.772;2023-11-19T05:38:56;3.03;;;1.67;;
13793;SDS011;31160;49.500;7.772;2023-11-19T05:41:22;2.40;;;1.60;;
13793;SDS011;31160;49.500;7.772;2023-11-19T05:43:49;3.50;;;1.63;;
13793;SDS011;31160;49.500;7.772;2023-11-19T05:46:16;2.00;;;1.33;;
13793;SDS011;31160;49.500;7.772;2023-11-19T05:48:45;2.97;;;1.77;;
13793;SDS011;31160;49.500;7.772;2023-11-19T05:51:13;3.10;;;1.73;;
13793;SDS011;31160;49.500;7.772;2023-11-19T05:53:41;3.73;;;1.73;;
13793;SDS011;31160;49.500;7.772;2023-11-19T05:56:08;3.27;;;1.47;;
13793;SDS011;31160;49.500;7.772;2023-11-19T05:58:36;2.80;;;1.40;;
13793;SDS011;31160;49.500;7.772;2023-11-19T06:01:03;3.17;;;1.60;;
13793;SDS011;31160;49.500;7.772;2023-11-19T06:03:33;2.67;;;1.60;;
13793;SDS011;31160;49.500;7.772;2023-11-19T06:06:00;1.80;;;1.40;;
13793;SDS011;31160;49.500;7.772;2023-11-19T06:08:27;2.63;;;1.80;;
13793;SDS011;31160;49.500;7.772;2023-11-19T06:10:53;3.27;;;2.10;;
13793;SDS011;31160;49.500;7.772;2023-11-19T06:13:20;1.67;;;1.20;;
13793;SDS011;31160;49.500;7.772;2023-11-19T06:15:50;4.90;;;1.50;;
13793;SDS011;31160;49.500;7.772;2023-11-19T06:18:17;1.57;;;1.10;;
13793;SDS011;31160;49.500;7.772;2023-11-19T06:20:46;2.73;;;1.20;;
13793;SDS011;31160;49.500;7.772;2023-11-19T06:23:13;2.17;;;1.30;;
13793;SDS011;31160;49.500;7.772;2023-11-19T06:25:39;2.93;;;1.20;;
13793;SDS011;31160;49.500;7.772;2023-11-19T06:28:06;2.00;;;1.30;;
13793;SDS011;31160;49.500;7.772;2023-11-19T06:30:33;4.83;;;1.40;;
13793;SDS011;31160;49.500;7.772;2023-11-19T06:33:00;1.43;;;1.17;;
13793;SDS011;31160;49.500;7.772;2023-11-19T06:35:27;1.57;;;1.10;;
13793;SDS011;31160;49.500;7.772;2023-11-19T06:38:02;2.53;;;1.40;;
13793;SDS011;31160;49.500;7.772;2023-11-19T06:40:31;1.83;;;1.47;;
13793;SDS011;31160;49.500;7.772;2023-11-19T06:42:59;1.97;;;1.20;;
13793;SDS011;31160;49.500;7.772;2023-11-19T06:45:26;3.27;;;1.40;;
13793;SDS011;31160;49.500;7.772;2023-11-19T06:47:52;3.23;;;1.20;;
13793;SDS011;31160;49.500;7.772;2023-11-19T06:50:19;4.50;;;1.20;;
13793;SDS011;31160;49.500;7.772;2023-11-19T06:52:46;2.57;;;1.23;;
13793;SDS011;31160;49.500;7.772;2023-11-19T06:55:13;1.20;;;1.10;;
13793;SDS011;31160;49.500;7.772;2023-11-19T06:57:40;5.90;;;1.50;;
13793;SDS011;31160;49.500;7.772;2023-11-19T07:00:07;1.87;;;1.17;;
13793;SDS011;31160;49.500;7.772;2023-11-19T07:02:35;2.27;;;1.20;;
13793;SDS011;31160;49.500;7.772;2023-11-19T07:05:02;3.20;;;1.30;;
13793;SDS011;31160;49.500;7.772;2023-11-19T07:07:31;2.67;;;1.40;;
13793;SDS011;31160;49.500;7.772;2023-11-19T07:09:59;4.27;;;1.53;;
13793;SDS011;31160;49.500;7.772;2023-11-19T07:12:25;3.13;;;1.40;;
13793;SDS011;31160;49.500;7.772;2023-11-19T07:14:53;3.00;;;1.17;;
13793;SDS011;31160;49.500;7.772;2023-11-19T07:17:21;2.33;;;1.20;;
13793;SDS011;31160;49.500;7.772;2023-11-19T07:19:49;1.37;;;1.00;;
13793;SDS011;31160;49.500;7.772;2023-11-19T07:22:16;2.67;;;1.60;;
13793;SDS011;31160;49.500;7.772;2023-11-19T07:24:43;2.70;;;1.27;;
13793;SDS011;31160;49.500;7.772;2023-11-19T07:27:10;2.83;;;1.40;;
13793;SDS011;31160;49.500;7.772;2023-11-19T07:29:37;3.17;;;1.30;;
13793;SDS011;31160;49.500;7.772;2023-11-19T07:32:04;4.07;;;1.10;;
13793;SDS011;31160;49.500;7.772;2023-11-19T07:34:31;1.47;;;0.97;;
13793;SDS011;31160;49.500;7.772;2023-11-19T07:36:58;1.97;;;0.70;;
13793;SDS011;31160;49.500;7.772;2023-11-19T07:39:28;2.43;;;0.50;;
13793;SDS011;31160;49.500;7.772;2023-11-19T07:41:55;0.80;;;0.50;;
13793;SDS011;31160;49.500;7.772;2023-11-19T07:44:22;0.73;;;0.63;;
13793;SDS011;31160;49.500;7.772;2023-11-19T07:46:49;0.70;;;0.70;;
13793;SDS011;31160;49.500;7.772;2023-11-19T07:49:16;1.07;;;0.80;;
13793;SDS011;31160;49.500;7.772;2023-11-19T07:51:43;1.13;;;0.80;;
13793;SDS011;31160;49.500;7.772;2023-11-19T07:54:10;1.27;;;1.10;;
13793;SDS011;31160;49.500;7.772;2023-11-19T07:56:37;4.10;;;2.33;;
13793;SDS011;31160;49.500;7.772;2023-11-19T07:59:03;3.60;;;1.50;;
13793;SDS011;31160;49.500;7.772;2023-11-19T08:01:30;3.43;;;2.40;;
13793;SDS011;31160;49.500;7.772;2023-11-19T08:03:57;6.80;;;4.73;;
13793;SDS011;31160;49.500;7.772;2023-11-19T08:06:25;2.20;;;1.50;;
13793;SDS011;31160;49.500;7.772;2023-11-19T08:08:52;2.93;;;1.73;;
13793;SDS011;31160;49.500;7.772;2023-11-19T08:11:19;5.00;;;1.50;;
13793;SDS011;31160;49.500;7.772;2023-11-19T08:13:46;3.40;;;1.40;;
13793;SDS011;31160;49.500;7.772;2023-11-19T08:16:13;3.37;;;2.20;;
13793;SDS011;31160;49.500;7.772;2023-11-19T08:18:42;5.77;;;2.27;;
13793;SDS011;31160;49.500;7.772;2023-11-19T08:21:09;18.57;;;12.33;;
13793;SDS011;31160;49.500;7.772;2023-11-19T08:23:36;3.87;;;1.57;;
13793;SDS011;31160;49.500;7.772;2023-11-19T08:26:04;1.63;;;1.10;;
13793;SDS011;31160;49.500;7.772;2023-11-19T08:28:32;5.03;;;1.40;;
13793;SDS011;31160;49.500;7.772;2023-11-19T08:31:00;2.57;;;1.40;;
13793;SDS011;31160;49.500;7.772;2023-11-19T08:33:30;4.30;;;1.10;;
13793;SDS011;31160;49.500;7.772;2023-11-19T08:35:57;4.47;;;1.13;;
13793;SDS011;31160;49.500;7.772;2023-11-19T08:38:24;3.43;;;1.30;;
13793;SDS011;31160;49.500;7.772;2023-11-19T08:40:54;2.33;;;1.10;;
13793;SDS011;31160;49.500;7.772;2023-11-19T08:43:27;3.97;;;2.00;;
13793;SDS011;31160;49.500;7.772;2023-11-19T08:45:53;3.37;;;1.30;;
13793;SDS011;31160;49.500;7.772;2023-11-19T08:48:20;2.47;;;1.30;;
13793;SDS011;31160;49.500;7.772;2023-11-19T08:50:47;7.57;;;1.43;;
13793;SDS011;31160;49.500;7.772;2023-11-19T08:53:14;4.20;;;1.40;;
13793;SDS011;31160;49.500;7.772;2023-11-19T08:55:41;7.60;;;1.27;;
13793;SDS011;31160;49.500;7.772;2023-11-19T08:58:08;1.57;;;0.93;;
13793;SDS011;31160;49.500;7.772;2023-11-19T09:00:35;5.83;;;1.30;;
13793;SDS011;31160;49.500;7.772;2023-11-19T09:03:02;4.10;;;1.10;;
13793;SDS011;31160;49.500;7.772;2023-11-19T09:05:30;2.77;;;1.17;;
13793;SDS011;31160;49.500;7.772;2023-11-19T09:07:57;5.53;;;1.20;;
13793;SDS011;31160;49.500;7.772;2023-11-19T09:10:24;5.33;;;1.30;;
13793;SDS011;31160;49.500;7.772;2023-11-19T09:12:51;2.80;;;1.10;;
13793;SDS011;31160;49.500;7.772;2023-11-19T09:15:19;4.27;;;1.03;;
13793;SDS011;31160;49.500;7.772;2023-11-19T09:17:46;3.47;;;1.33;;
13793;SDS011;31160;49.500;7.772;2023-11-19T09:20:12;4.63;;;0.97;;
13793;SDS011;31160;49.500;7.772;2023-11-19T09:22:41;3.63;;;1.00;;
13793;SDS011;31160;49.500;7.772;2023-11-19T09:25:08;2.90;;;0.90;;
13793;SDS011;31160;49.500;7.772;2023-11-19T09:27:35;7.73;;;1.13;;
13793;SDS011;31160;49.500;7.772;2023-11-19T09:30:02;5.03;;;1.10;;
13793;SDS011;31160;49.500;7.772;2023-11-19T09:32:30;2.27;;;0.80;;
13793;SDS011;31160;49.500;7.772;2023-11-19T09:34:57;6.23;;;1.63;;
13793;SDS011;31160;49.500;7.772;2023-11-19T09:37:24;3.27;;;1.33;;
13793;SDS011;31160;49.500;7.772;2023-11-19T09:39:50;3.77;;;1.00;;
13793;SDS011;31160;49.500;7.772;2023-11-19T09:42:17;5.13;;;1.20;;
13793;SDS011;31160;49.500;7.772;2023-11-19T09:44:44;6.27;;;1.30;;
13793;SDS011;31160;49.500;7.772;2023-11-19T09:47:14;5.27;;;1.20;;
13793;SDS011;31160;49.500;7.772;2023-11-19T09:49:40;1.80;;;0.80;;
13793;SDS011;31160;49.500;7.772;2023-11-19T09:52:08;2.60;;;1.23;;
13793;SDS011;31160;49.500;7.772;2023-11-19T09:54:34;4.90;;;1.03;;
13793;SDS011;31160;49.500;7.772;2023-11-19T09:57:01;4.40;;;1.20;;
13793;SDS011;31160;49.500;7.772;2023-11-19T09:59:32;4.80;;;1.30;;
13793;SDS011;31160;49.500;7.772;2023-11-19T10:01:59;4.47;;;1.10;;
13793;SDS011;31160;49.500;7.772;2023-11-19T10:04:26;3.00;;;0.90;;
13793;SDS011;31160;49.500;7.772;2023-11-19T10:06:56;5.03;;;1.23;;
13793;SDS011;31160;49.500;7.772;2023-11-19T10:09:23;5.23;;;1.00;;
13793;SDS011;31160;49.500;7.772;2023-11-19T10:11:50;2.13;;;1.23;;
13793;SDS011;31160;49.500;7.772;2023-11-19T10:14:18;2.57;;;0.90;;
13793;SDS011;31160;49.500;7.772;2023-11-19T10:16:49;3.53;;;0.97;;
13793;SDS011;31160;49.500;7.772;2023-11-19T10:19:19;5.07;;;1.10;;
13793;SDS011;31160;49.500;7.772;2023-11-19T10:21:47;4.73;;;1.20;;
13793;SDS011;31160;49.500;7.772;2023-11-19T10:24:14;6.53;;;1.40;;
13793;SDS011;31160;49.500;7.772;2023-11-19T10:26:56;3.93;;;1.10;;
13793;SDS011;31160;49.500;7.772;2023-11-19T10:29:23;3.27;;;1.03;;
13793;SDS011;31160;49.500;7.772;2023-11-19T10:31:55;4.13;;;1.03;;
13793;SDS011;31160;49.500;7.772;2023-11-19T10:34:43;6.23;;;1.10;;
13793;SDS011;31160;49.500;7.772;2023-11-19T10:37:26;2.43;;;0.90;;
13793;SDS011;31160;49.500;7.772;2023-11-19T10:39:55;5.00;;;1.10;;
13793;SDS011;31160;49.500;7.772;2023-11-19T10:42:22;5.73;;;1.53;;
13793;SDS011;31160;49.500;7.772;2023-11-19T10:44:49;4.27;;;1.10;;
13793;SDS011;31160;49.500;7.772;2023-11-19T10:47:18;4.40;;;0.80;;
13793;SDS011;31160;49.500;7.772;2023-11-19T10:50:02;3.80;;;1.37;;
13793;SDS011;31160;49.500;7.772;2023-11-19T10:52:29;5.07;;;0.83;;
13793;SDS011;31160;49.500;7.772;2023-11-19T10:54:56;2.80;;;0.73;;
13793;SDS011;31160;49.500;7.772;2023-11-19T10:57:28;2.57;;;1.00;;
13793;SDS011;31160;49.500;7.772;2023-11-19T11:00:00;2.93;;;1.00;;
13793;SDS011;31160;49.500;7.772;2023-11-19T11:02:29;6.00;;;0.90;;
13793;SDS011;31160;49.500;7.772;2023-11-19T11:05:01;4.67;;;0.90;;
13793;SDS011;31160;49.500;7.772;2023-11-19T11:07:29;2.80;;;0.80;;
13793;SDS011;31160;49.500;7.772;2023-11-19T11:10:06;7.67;;;2.67;;
13793;SDS011;31160;49.500;7.772;2023-11-19T11:12:36;12.20;;;6.63;;
13793;SDS011;31160;49.500;7.772;2023-11-19T11:15:08;6.87;;;1.40;;
13793;SDS011;31160;49.500;7.772;2023-11-19T11:17:41;3.17;;;1.00;;
13793;SDS011;31160;49.500;7.772;2023-11-19T11:20:11;3.17;;;0.83;;
13793;SDS011;31160;49.500;7.772;2023-11-19T11:22:49;2.73;;;0.80;;
13793;SDS011;31160;49.500;7.772;2023-11-19T11:25:38;4.10;;;0.80;;
13793;SDS011;31160;49.500;7.772;2023-11-19T11:28:16;5.70;;;1.30;;
13793;SDS011;31160;49.500;7.772;2023-11-19T11:33:34;5.17;;;1.20;;
13793;SDS011;31160;49.500;7.772;2023-11-19T11:36:25;4.13;;;1.50;;
13793;SDS011;31160;49.500;7.772;2023-11-19T11:38:53;3.17;;;0.83;;
13793;SDS011;31160;49.500;7.772;2023-11-19T11:41:24;2.33;;;0.80;;
13793;SDS011;31160;49.500;7.772;2023-11-19T11:43:55;2.97;;;0.70;;
13793;SDS011;31160;49.500;7.772;2023-11-19T11:49:02;4.20;;;0.90;;
13793;SDS011;31160;49.500;7.772;2023-11-19T11:54:10;5.50;;;0.87;;
13793;SDS011;31160;49.500;7.772;2023-11-19T11:56:37;4.07;;;1.07;;
13793;SDS011;31160;49.500;7.772;2023-11-19T11:59:08;5.10;;;0.90;;
13793;SDS011;31160;49.500;7.772;2023-11-19T12:01:57;4.90;;;0.80;;
13793;SDS011;31160;49.500;7.772;2023-11-19T12:04:28;5.73;;;1.50;;
13793;SDS011;31160;49.500;7.772;2023-11-19T12:09:32;2.17;;;0.70;;
13793;SDS011;31160;49.500;7.772;2023-11-19T12:12:13;5.53;;;0.93;;
13793;SDS011;31160;49.500;7.772;2023-11-19T12:20:01;4.77;;;1.10;;
13793;SDS011;31160;49.500;7.772;2023-11-19T12:22:35;3.73;;;1.20;;
13793;SDS011;31160;49.500;7.772;2023-11-19T12:25:08;6.70;;;1.47;;
13793;SDS011;31160;49.500;7.772;2023-11-19T12:27:36;5.27;;;1.70;;
13793;SDS011;31160;49.500;7.772;2023-11-19T12:30:11;5.10;;;1.20;;
13793;SDS011;31160;49.500;7.772;2023-11-19T12:32:38;3.87;;;0.90;;
13793;SDS011;31160;49.500;7.772;2023-11-19T12:35:10;5.07;;;1.37;;
13793;SDS011;31160;49.500;7.772;2023-11-19T12:40:16;2.70;;;0.80;;
13793;SDS011;31160;49.500;7.772;2023-11-19T12:42:49;4.70;;;1.00;;
13793;SDS011;31160;49.500;7.772;2023-11-19T12:45:17;5.93;;;1.10;;
13793;SDS011;31160;49.500;7.772;2023-11-19T12:47:45;4.07;;;0.80;;
13793;SDS011;31160;49.500;7.772;2023-11-19T12:50:16;7.07;;;1.40;;
13793;SDS011;31160;49.500;7.772;2023-11-19T12:52:56;4.93;;;1.20;;
13793;SDS011;31160;49.500;7.772;2023-11-19T12:55:24;3.60;;;1.23;;
13793;SDS011;31160;49.500;7.772;2023-11-19T12:57:56;3.00;;;1.07;;
13793;SDS011;31160;49.500;7.772;2023-11-19T13:00:25;6.80;;;1.80;;
13793;SDS011;31160;49.500;7.772;2023-11-19T13:02:53;4.27;;;0.80;;
13793;SDS011;31160;49.500;7.772;2023-11-19T13:05:31;5.17;;;1.13;;
13793;SDS011;31160;49.500;7.772;2023-11-19T13:08:03;3.30;;;1.13;;
13793;SDS011;31160;49.500;7.772;2023-11-19T13:10:32;4.93;;;1.20;;
13793;SDS011;31160;49.500;7.772;2023-11-19T13:13:01;4.70;;;2.17;;
13793;SDS011;31160;49.500;7.772;2023-11-19T13:15:32;3.57;;;1.10;;
13793;SDS011;31160;49.500;7.772;2023-11-19T13:18:00;4.50;;;2.50;;
13793;SDS011;31160;49.500;7.772;2023-11-19T13:20:28;4.90;;;2.13;;
13793;SDS011;31160;49.500;7.772;2023-11-19T13:23:02;5.97;;;1.60;;
13793;SDS011;31160;49.500;7.772;2023-11-19T13:25:29;3.30;;;1.00;;
13793;SDS011;31160;49.500;7.772;2023-11-19T13:27:57;3.10;;;0.90;;
13793;SDS011;31160;49.500;7.772;2023-11-19T13:30:25;4.07;;;1.10;;
13793;SDS011;31160;49.500;7.772;2023-11-19T13:32:53;5.57;;;1.00;;
13793;SDS011;31160;49.500;7.772;2023-11-19T13:35:22;4.17;;;1.40;;
13793;SDS011;31160;49.500;7.772;2023-11-19T13:37:49;3.23;;;1.03;;
13793;SDS011;31160;49.500;7.772;2023-11-19T13:40:16;5.93;;;1.00;;
13793;SDS011;31160;49.500;7.772;2023-11-19T13:42:43;4.13;;;1.20;;
13793;SDS011;31160;49.500;7.772;2023-11-19T13:45:14;5.10;;;0.87;;
13793;SDS011;31160;49.500;7.772;2023-11-19T13:47:44;7.67;;;1.10;;
13793;SDS011;31160;49.500;7.772;2023-11-19T13:50:12;6.33;;;3.73;;
13793;SDS011;31160;49.500;7.772;2023-11-19T13:52:41;7.97;;;3.03;;
13793;SDS011;31160;49.500;7.772;2023-11-19T13:55:11;4.27;;;1.03;;
13793;SDS011;31160;49.500;7.772;2023-11-19T13:57:38;7.03;;;1.20;;
13793;SDS011;31160;49.500;7.772;2023-11-19T14:00:06;6.17;;;1.03;;
13793;SDS011;31160;49.500;7.772;2023-11-19T14:02:42;3.23;;;1.00;;
13793;SDS011;31160;49.500;7.772;2023-11-19T14:05:10;4.83;;;1.10;;
13793;SDS011;31160;49.500;7.772;2023-11-19T14:07:37;6.23;;;1.33;;
13793;SDS011;31160;49.500;7.772;2023-11-19T14:10:05;4.33;;;0.90;;
13793;SDS011;31160;49.500;7.772;2023-11-19T14:12:35;6.20;;;1.47;;
13793;SDS011;31160;49.500;7.772;2023-11-19T14:15:04;5.47;;;1.10;;
13793;SDS011;31160;49.500;7.772;2023-11-19T14:17:35;7.50;;;1.27;;
13793;SDS011;31160;49.500;7.772;2023-11-19T14:20:03;4.90;;;1.73;;
13793;SDS011;31160;49.500;7.772;2023-11-19T14:22:39;3.70;;;1.17;;
13793;SDS011;31160;49.500;7.772;2023-11-19T14:25:06;3.27;;;1.50;;
13793;SDS011;31160;49.500;7.772;2023-11-19T14:27:42;4.00;;;1.57;;
13793;SDS011;31160;49.500;7.772;2023-11-19T14:30:10;5.07;;;1.20;;
13793;SDS011;31160;49.500;7.772;2023-11-19T14:32:40;2.47;;;0.80;;
13793;SDS011;31160;49.500;7.772;2023-11-19T14:35:12;8.10;;;1.20;;
13793;SDS011;31160;49.500;7.772;2023-11-19T14:37:39;3.43;;;0.80;;
13793;SDS011;31160;49.500;7.772;2023-11-19T14:40:06;6.30;;;1.43;;
13793;SDS011;31160;49.500;7.772;2023-11-19T14:42:36;5.20;;;1.17;;
13793;SDS011;31160;49.500;7.772;2023-11-19T14:45:05;3.23;;;0.97;;
13793;SDS011;31160;49.500;7.772;2023-11-19T14:47:33;4.10;;;1.10;;
13793;SDS011;31160;49.500;7.772;2023-11-19T14:50:00;3.53;;;0.90;;
13793;SDS011;31160;49.500;7.772;2023-11-19T14:52:26;4.70;;;1.40;;
13793;SDS011;31160;49.500;7.772;2023-11-19T14:54:53;4.60;;;1.30;;
13793;SDS011;31160;49.500;7.772;2023-11-19T14:57:22;5.17;;;1.57;;
13793;SDS011;31160;49.500;7.772;2023-11-19T14:59:49;5.53;;;1.63;;
13793;SDS011;31160;49.500;7.772;2023-11-19T15:02:16;5.93;;;1.10;;
13793;SDS011;31160;49.500;7.772;2023-11-19T15:04:44;3.97;;;0.90;;
13793;SDS011;31160;49.500;7.772;2023-11-19T15:07:11;3.67;;;0.90;;
13793;SDS011;31160;49.500;7.772;2023-11-19T15:09:38;6.87;;;1.17;;
13793;SDS011;31160;49.500;7.772;2023-11-19T15:12:05;4.27;;;1.07;;
13793;SDS011;31160;49.500;7.772;2023-11-19T15:14:32;4.57;;;1.00;;
13793;SDS011;31160;49.500;7.772;2023-11-19T15:16:59;4.10;;;0.90;;